Terminal Aerodrome Forecast
Issued by NWS

Home | Current Version | Previous Version | Graphics & Text | Print | Product List | Glossary On
Versions: 1 2 3 4 5 6 7 8 9 10 11 12 13 14 15 16
000
FTUS45 KGGW 150500
TAFGDV
TAF
KGDV 150531Z 1506/1606 14009KT P6SM BKN150
     FM151500 23010KT P6SM BKN150
     FM160000 32013KT P6SM VCSH OVC080
      AMD LTD TO CLD VIS AND WIND=

USA.gov is the U.S. government's official web portal to all federal, state and local government web resources and services.